Time;durP1;ratioP1;P1;durP2;ratioP2;P2;SDS_P1;SDS_P2;PMS_P1;PMS_P2;Temp;Humidity;BMP_temperature;BMP_pressure;BME280_temperature;BME280_humidity;BME280_pressure;Samples;Min_cycle;Max_cycle;Signal;HPM_P1;HPM_P2
2022/07/10 04:00:38;;;;;;;10.90;9.17;;;17.30;99.90;;;;;;5870194;23;20784;-68
2022/07/10 04:03:06;;;;;;;10.07;9.17;;;17.20;99.90;;;;;;4976455;28;20459;-67
2022/07/10 04:05:34;;;;;;;9.90;9.00;;;17.30;99.90;;;;;;4976401;28;20941;-68
2022/07/10 04:08:02;;;;;;;9.47;8.57;;;17.30;99.90;;;;;;4976597;28;20455;-68
2022/07/10 04:10:30;;;;;;;9.20;8.57;;;17.20;99.90;;;;;;4976363;28;20490;-67
2022/07/10 04:12:58;;;;;;;9.80;8.93;;;17.30;99.90;;;;;;4976026;28;20489;-68
2022/07/10 04:15:25;;;;;;;9.33;8.37;;;17.30;99.90;;;;;;4976639;28;20439;-68
2022/07/10 04:17:53;;;;;;;9.00;8.20;;;17.40;99.90;;;;;;4976701;28;20450;-68
2022/07/10 04:20:21;;;;;;;8.93;8.10;;;17.40;99.90;;;;;;4976038;28;20837;-68
2022/07/10 04:22:47;;;;;;;10.90;8.90;;;17.40;99.90;;;;;;4976342;28;20451;-68
2022/07/10 04:25:14;;;;;;;9.60;8.80;;;17.30;99.90;;;;;;4976293;28;20461;-68
2022/07/10 04:27:41;;;;;;;8.70;8.00;;;17.30;99.90;;;;;;4976258;28;20443;-68
2022/07/10 04:30:09;;;;;;;8.83;8.10;;;17.20;99.90;;;;;;4976322;28;20489;-68
2022/07/10 04:32:36;;;;;;;9.43;8.50;;;17.30;99.90;;;;;;4980576;28;20510;-68
2022/07/10 04:35:06;;;;;;;11.03;8.90;;;17.30;99.90;;;;;;4982089;28;20454;-69
2022/07/10 04:37:34;;;;;;;9.87;9.17;;;17.30;99.90;;;;;;4979493;28;20466;-68
2022/07/10 04:40:01;;;;;;;8.23;7.57;;;17.40;99.90;;;;;;4979196;28;20462;-68
2022/07/10 04:42:27;;;;;;;10.47;8.87;;;17.40;99.90;;;;;;4975891;28;21008;-68
2022/07/10 04:44:54;;;;;;;8.47;7.80;;;17.40;99.90;;;;;;4976515;28;20459;-68
2022/07/10 04:47:21;;;;;;;8.30;7.70;;;17.40;99.90;;;;;;4975945;28;20967;-68
2022/07/10 04:49:47;;;;;;;7.80;7.20;;;17.40;99.90;;;;;;4978882;28;20458;-69
2022/07/10 04:52:16;;;;;;;7.90;7.20;;;17.40;99.90;;;;;;4995022;28;20479;-69
2022/07/10 04:54:42;;;;;;;8.57;7.87;;;17.40;99.90;;;;;;4983464;28;20478;-68
2022/07/10 04:57:09;;;;;;;8.40;7.70;;;17.40;99.90;;;;;;4975722;28;20454;-68
2022/07/10 04:59:36;;;;;;;7.27;6.77;;;17.30;99.90;;;;;;4975514;28;20470;-68
2022/07/10 05:02:03;;;;;;;7.60;7.00;;;17.40;99.90;;;;;;4975159;28;20482;-68
2022/07/10 05:04:30;;;;;;;7.63;6.90;;;17.30;99.90;;;;;;4975537;28;20455;-68
2022/07/10 05:06:56;;;;;;;6.00;5.63;;;17.40;99.90;;;;;;4975513;28;20458;-68
2022/07/10 05:09:24;;;;;;;6.87;6.30;;;17.40;99.90;;;;;;4975054;28;20467;-68
2022/07/10 05:11:51;;;;;;;6.40;5.90;;;17.40;99.90;;;;;;4975263;28;20487;-68
2022/07/10 05:14:18;;;;;;;6.83;6.27;;;17.40;99.90;;;;;;4975258;28;20529;-68
2022/07/10 05:16:44;;;;;;;5.70;5.03;;;17.40;99.90;;;;;;4975280;28;20455;-68
2022/07/10 05:19:11;;;;;;;9.60;5.20;;;17.50;99.90;;;;;;4974940;28;20825;-68
2022/07/10 05:21:38;;;;;;;5.70;5.30;;;17.60;99.90;;;;;;4975027;28;20482;-68
2022/07/10 05:24:05;;;;;;;7.40;4.83;;;17.50;99.90;;;;;;4974631;28;21008;-68
2022/07/10 05:26:33;;;;;;;7.60;5.27;;;17.60;99.90;;;;;;4975165;28;20454;-68
2022/07/10 05:29:00;;;;;;;5.60;5.00;;;17.60;99.90;;;;;;4974843;28;20510;-68
2022/07/10 05:31:26;;;;;;;4.53;4.23;;;17.60;99.90;;;;;;4974979;28;20481;-68
2022/07/10 05:33:53;;;;;;;5.70;5.23;;;17.60;99.90;;;;;;4975051;28;20454;-68
2022/07/10 05:36:20;;;;;;;5.67;5.20;;;17.60;99.90;;;;;;4974787;28;20466;-68
2022/07/10 05:38:46;;;;;;;4.90;4.37;;;17.50;99.90;;;;;;4974607;28;20978;-68
2022/07/10 05:41:13;;;;;;;4.73;4.33;;;17.40;99.90;;;;;;4975354;28;20478;-68
2022/07/10 05:43:41;;;;;;;4.97;4.37;;;17.40;99.90;;;;;;4975107;28;20462;-69
2022/07/10 05:46:08;;;;;;;4.17;3.87;;;17.40;99.90;;;;;;4974841;28;20945;-68
2022/07/10 05:48:35;;;;;;;4.43;4.13;;;17.50;99.90;;;;;;4975228;28;20458;-68
2022/07/10 05:51:01;;;;;;;5.90;4.43;;;17.60;99.90;;;;;;4975063;28;20474;-69
2022/07/10 05:53:28;;;;;;;5.10;4.70;;;17.70;99.90;;;;;;4975083;28;20486;-68
2022/07/10 05:55:55;;;;;;;5.30;4.30;;;17.80;99.90;;;;;;4975130;28;20460;-69
2022/07/10 05:58:22;;;;;;;4.30;4.00;;;17.80;99.90;;;;;;4974823;28;20461;-68
2022/07/10 06:00:50;;;;;;;4.47;4.17;;;17.90;99.90;;;;;;4974975;28;20482;-68
2022/07/10 06:03:17;;;;;;;5.03;4.63;;;18.00;99.90;;;;;;4975590;28;20902;-68
2022/07/10 06:05:43;;;;;;;5.37;4.27;;;18.10;99.90;;;;;;4975554;28;20861;-68
2022/07/10 06:08:12;;;;;;;5.00;4.57;;;18.10;99.90;;;;;;4974800;28;20463;-68
2022/07/10 06:10:39;;;;;;;5.73;4.43;;;18.10;99.90;;;;;;4974950;28;20815;-68
2022/07/10 06:13:06;;;;;;;5.20;4.80;;;18.00;99.90;;;;;;4974595;28;20474;-68
2022/07/10 06:15:33;;;;;;;4.60;4.20;;;18.00;99.90;;;;;;4974835;28;20458;-68
2022/07/10 06:18:01;;;;;;;6.37;4.30;;;18.00;99.90;;;;;;4974722;28;20443;-68
2022/07/10 06:20:28;;;;;;;4.53;4.13;;;18.10;99.90;;;;;;4974655;28;20462;-68
2022/07/10 06:22:54;;;;;;;4.30;4.00;;;18.20;99.90;;;;;;4974438;28;20456;-68
2022/07/10 06:25:21;;;;;;;4.97;4.67;;;18.20;99.90;;;;;;4974050;28;20968;-68
2022/07/10 06:27:48;;;;;;;4.20;3.80;;;18.20;99.90;;;;;;4974459;28;20454;-68
2022/07/10 06:30:15;;;;;;;4.60;3.70;;;18.20;99.90;;;;;;4974051;28;21023;-68
2022/07/10 06:32:41;;;;;;;5.00;3.47;;;18.40;99.90;;;;;;4974565;28;20478;-68
2022/07/10 06:35:10;;;;;;;3.83;3.53;;;18.60;99.90;;;;;;4976230;28;20458;-68
2022/07/10 06:37:37;;;;;;;3.27;3.07;;;18.70;99.90;;;;;;4978131;28;20458;-68
2022/07/10 06:40:05;;;;;;;3.43;3.07;;;18.70;99.90;;;;;;4978050;28;20462;-68
2022/07/10 06:42:31;;;;;;;2.90;2.80;;;18.80;99.90;;;;;;4978697;28;20471;-68
2022/07/10 06:44:58;;;;;;;5.20;3.37;;;18.80;99.90;;;;;;4977965;28;20459;-68
2022/07/10 06:50:11;;;;;;;8.20;3.43;;;18.90;99.90;;;;;;4977670;28;20554;-68
2022/07/10 06:52:38;;;;;;;3.13;2.83;;;19.00;99.90;;;;;;4977868;28;20479;-68
2022/07/10 06:55:06;;;;;;;2.40;2.20;;;19.00;99.90;;;;;;4977512;28;20463;-68
2022/07/10 06:57:33;;;;;;;4.70;2.83;;;18.90;99.90;;;;;;4977669;28;20860;-68
2022/07/10 06:59:59;;;;;;;3.13;2.93;;;18.70;99.90;;;;;;4977359;28;20458;-68
2022/07/10 07:02:26;;;;;;;2.80;2.60;;;18.70;99.90;;;;;;4977152;28;20482;-68
2022/07/10 07:04:53;;;;;;;3.73;3.43;;;18.70;99.90;;;;;;4977313;28;20965;-68
2022/07/10 07:07:21;;;;;;;5.70;3.30;;;18.40;99.90;;;;;;4977532;28;20458;-68
2022/07/10 07:09:49;;;;;;;3.80;3.10;;;18.30;99.90;;;;;;4977466;28;20450;-67
2022/07/10 07:12:16;;;;;;;6.80;3.03;;;18.30;99.90;;;;;;4977347;28;20478;-67
2022/07/10 07:14:43;;;;;;;6.70;3.33;;;18.40;99.90;;;;;;4977279;28;20454;-68
2022/07/10 07:17:11;;;;;;;2.90;2.60;;;18.50;99.90;;;;;;4977324;28;20455;-68
2022/07/10 07:25:11;;;;;;;3.77;2.83;;;18.40;99.90;;;;;;4977326;28;20422;-68
2022/07/10 07:27:39;;;;;;;3.30;3.00;;;18.40;99.90;;;;;;4977293;28;20454;-68
2022/07/10 07:30:07;;;;;;;6.30;2.50;;;18.30;99.90;;;;;;4977869;28;20489;-69
2022/07/10 07:32:34;;;;;;;3.73;2.30;;;18.30;99.90;;;;;;4978328;28;20518;-69
2022/07/10 07:35:01;;;;;;;3.93;2.33;;;18.30;99.90;;;;;;4979000;28;20450;-68
2022/07/10 07:37:43;;;;;;;4.33;2.40;;;18.30;99.90;;;;;;4979168;28;20455;-69
2022/07/10 07:40:12;;;;;;;5.33;2.60;;;18.30;99.90;;;;;;4979674;28;20466;-70
2022/07/10 07:42:40;;;;;;;3.40;2.00;;;18.30;99.90;;;;;;4979910;28;20462;-70
2022/07/10 07:45:08;;;;;;;2.23;1.97;;;18.40;99.90;;;;;;4979964;28;20461;-70
2022/07/10 07:47:44;;;;;;;2.47;2.20;;;18.60;99.90;;;;;;4980578;28;20487;-69
2022/07/10 07:50:11;;;;;;;2.47;2.17;;;18.60;99.90;;;;;;4980571;28;20450;-69
2022/07/10 07:52:38;;;;;;;2.30;2.20;;;18.80;99.90;;;;;;4979549;28;21040;-69
2022/07/10 07:55:07;;;;;;;4.83;2.27;;;18.80;99.90;;;;;;4979065;28;20454;-67
2022/07/10 07:57:34;;;;;;;3.03;1.90;;;18.80;99.90;;;;;;4981564;28;20458;-68
2022/07/10 08:00:00;;;;;;;4.03;3.07;;;18.90;99.90;;;;;;4988547;28;20451;-68
2022/07/10 08:02:27;;;;;;;3.40;2.50;;;19.00;99.90;;;;;;4980399;28;20475;-68
2022/07/10 08:04:54;;;;;;;2.90;1.83;;;19.20;99.90;;;;;;4977033;28;20495;-69
2022/07/10 08:07:20;;;;;;;7.40;1.77;;;19.30;99.90;;;;;;4976657;28;20462;-69
2022/07/10 08:09:48;;;;;;;3.83;2.00;;;19.50;99.90;;;;;;4976543;28;20455;-69
2022/07/10 08:12:16;;;;;;;2.50;1.83;;;19.50;99.90;;;;;;4976354;28;20478;-69
2022/07/10 08:14:44;;;;;;;2.23;2.03;;;19.70;99.90;;;;;;4976547;28;20455;-69
2022/07/10 08:17:11;;;;;;;2.60;2.40;;;19.90;99.90;;;;;;4976346;28;20878;-68
2022/07/10 08:19:38;;;;;;;1.70;1.67;;;20.30;99.90;;;;;;4976218;28;20458;-68
2022/07/10 08:22:05;;;;;;;3.27;1.97;;;21.00;99.90;;;;;;4976122;28;20475;-68
2022/07/10 08:24:32;;;;;;;1.70;1.60;;;21.70;99.90;;;;;;4976177;28;20461;-68
2022/07/10 08:26:59;;;;;;;2.17;1.90;;;22.10;99.90;;;;;;4976006;28;20482;-68
2022/07/10 08:29:27;;;;;;;1.90;1.80;;;22.20;99.90;;;;;;4976103;28;20483;-68
2022/07/10 08:31:54;;;;;;;2.40;1.67;;;22.10;99.90;;;;;;4976162;28;20474;-68
2022/07/10 08:34:20;;;;;;;3.37;2.20;;;22.20;99.90;;;;;;4975552;28;21005;-68
2022/07/10 08:36:47;;;;;;;1.87;1.57;;;22.20;99.90;;;;;;4975881;28;20525;-70
2022/07/10 08:39:15;;;;;;;2.90;1.70;;;21.70;99.90;;;;;;4975881;28;20465;-69
2022/07/10 08:41:45;;;;;;;3.87;1.97;;;21.70;99.90;;;;;;4975724;28;20813;-69
2022/07/10 08:44:12;;;;;;;4.50;2.27;;;21.50;99.90;;;;;;4975449;28;20455;-69
2022/07/10 08:46:40;;;;;;;4.43;1.50;;;21.40;99.90;;;;;;4975623;28;20865;-69
2022/07/10 08:49:10;;;;;;;4.40;1.77;;;21.60;99.90;;;;;;4975847;28;20461;-69
2022/07/10 08:51:41;;;;;;;2.10;1.40;;;22.10;99.90;;;;;;4975698;28;20525;-69
2022/07/10 08:54:09;;;;;;;3.17;1.70;;;22.50;99.10;;;;;;4975156;28;20966;-69
2022/07/10 08:56:36;;;;;;;2.73;1.40;;;22.50;98.70;;;;;;4975162;28;20938;-69
2022/07/10 08:59:04;;;;;;;3.60;2.73;;;22.20;98.90;;;;;;4975122;28;20665;-68
2022/07/10 09:01:32;;;;;;;3.30;2.37;;;22.20;99.00;;;;;;4974989;28;20514;-69
2022/07/10 09:04:00;;;;;;;2.97;2.20;;;22.20;99.90;;;;;;4975266;28;20455;-69
2022/07/10 09:06:28;;;;;;;2.73;1.73;;;22.20;97.80;;;;;;4975145;28;20462;-72
2022/07/10 09:09:04;;;;;;;4.27;1.70;;;22.20;97.10;;;;;;4975177;28;20494;-68
2022/07/10 09:11:31;;;;;;;3.63;1.50;;;22.40;96.70;;;;;;4975304;28;20485;-67
2022/07/10 09:13:59;;;;;;;3.33;1.63;;;22.70;97.30;;;;;;4975227;28;20964;-67
2022/07/10 09:16:27;;;;;;;5.20;1.60;;;22.90;96.20;;;;;;4975415;28;20465;-67
2022/07/10 09:18:54;;;;;;;4.87;1.90;;;23.00;95.90;;;;;;4975118;28;20458;-68
2022/07/10 09:21:23;;;;;;;2.00;1.60;;;22.70;95.80;;;;;;4975386;28;20510;-68
2022/07/10 09:23:50;;;;;;;2.13;1.20;;;23.20;98.30;;;;;;4974790;28;20447;-68
2022/07/10 09:26:18;;;;;;;2.43;1.53;;;23.80;93.50;;;;;;4975077;28;20454;-68
2022/07/10 09:28:44;;;;;;;1.80;1.60;;;24.70;92.90;;;;;;4974922;28;20458;-68
2022/07/10 09:31:11;;;;;;;2.77;1.40;;;25.20;90.80;;;;;;4974889;28;20474;-68
2022/07/10 09:33:40;;;;;;;1.60;1.50;;;25.70;90.30;;;;;;4974541;28;20482;-67
2022/07/10 09:36:09;;;;;;;1.40;1.30;;;25.80;85.40;;;;;;4974686;28;20455;-69
2022/07/10 09:38:54;;;;;;;1.70;1.40;;;26.10;84.80;;;;;;4975195;28;20839;-68
2022/07/10 09:41:23;;;;;;;2.00;1.23;;;26.00;81.40;;;;;;4975129;28;20573;-67
2022/07/10 09:43:51;;;;;;;1.63;1.30;;;26.00;79.50;;;;;;4975024;28;20454;-68
2022/07/10 09:46:19;;;;;;;2.53;1.50;;;26.20;78.50;;;;;;4975093;28;20868;-68
2022/07/10 09:48:46;;;;;;;1.70;1.60;;;26.10;79.00;;;;;;4974853;28;20463;-68
2022/07/10 09:51:13;;;;;;;2.47;1.30;;;26.00;79.00;;;;;;4974937;28;20482;-68
2022/07/10 09:53:41;;;;;;;1.30;1.20;;;25.60;78.60;;;;;;4974763;28;20538;-68
2022/07/10 09:56:11;;;;;;;1.23;1.13;;;25.40;79.10;;;;;;4974908;28;20455;-68
2022/07/10 09:58:38;;;;;;;1.60;1.47;;;25.40;80.00;;;;;;4975449;28;20525;-68
2022/07/10 10:01:07;;;;;;;1.60;1.27;;;25.80;79.10;;;;;;4974456;28;20509;-68
2022/07/10 10:03:36;;;;;;;3.33;1.40;;;26.40;77.30;;;;;;4974534;28;20794;-68
2022/07/10 10:06:05;;;;;;;2.47;1.30;;;27.00;73.30;;;;;;4974781;28;20467;-68
2022/07/10 10:08:38;;;;;;;2.80;1.40;;;26.80;72.20;;;;;;4974500;28;20451;-68
2022/07/10 10:11:07;;;;;;;2.53;1.63;;;26.40;70.90;;;;;;4977866;28;20533;-68
2022/07/10 10:13:36;;;;;;;5.70;1.17;;;25.90;73.60;;;;;;4978354;28;20483;-68
2022/07/10 10:16:03;;;;;;;3.70;1.60;;;25.40;74.80;;;;;;4978147;28;20967;-68
2022/07/10 10:18:30;;;;;;;3.00;1.60;;;24.70;77.20;;;;;;4978377;28;20565;-68
2022/07/10 10:20:56;;;;;;;3.47;1.50;;;24.40;76.20;;;;;;4978274;28;20474;-68
2022/07/10 10:23:24;;;;;;;1.60;1.37;;;24.00;78.20;;;;;;4978331;28;20652;-68
2022/07/10 10:25:53;;;;;;;3.07;1.30;;;23.80;79.70;;;;;;4978279;28;20819;-68
2022/07/10 10:28:23;;;;;;;1.40;1.30;;;23.90;79.60;;;;;;4978268;28;20462;-68
2022/07/10 10:30:53;;;;;;;2.87;1.53;;;24.70;81.20;;;;;;4978126;28;20894;-68
2022/07/10 10:33:51;;;;;;;1.50;1.20;;;24.90;75.60;;;;;;4979043;28;20533;-68
2022/07/10 10:36:47;;;;;;;3.07;1.47;;;24.60;75.20;;;;;;4977769;28;20902;-68
2022/07/10 10:39:16;;;;;;;2.90;1.40;;;24.50;77.70;;;;;;4977690;28;20501;-69
2022/07/10 10:41:47;;;;;;;3.30;1.50;;;24.50;77.20;;;;;;4978161;28;20470;-69
2022/07/10 10:44:31;;;;;;;1.27;1.27;;;24.50;78.00;;;;;;4978136;28;20458;-69
2022/07/10 10:47:06;;;;;;;0.97;0.97;;;24.40;78.60;;;;;;4978299;28;20775;-70
2022/07/10 10:49:53;;;;;;;3.00;1.70;;;24.30;78.40;;;;;;4978457;28;20442;-69
2022/07/10 10:52:21;;;;;;;2.60;1.83;;;24.20;79.40;;;;;;4978284;28;20478;-69
2022/07/10 10:55:03;;;;;;;1.57;1.43;;;24.40;78.20;;;;;;4977921;28;20478;-69
2022/07/10 10:57:39;;;;;;;2.10;1.53;;;24.60;77.00;;;;;;4978124;28;20808;-69
2022/07/10 11:00:08;;;;;;;2.10;1.70;;;25.00;80.00;;;;;;4978276;28;20493;-69
2022/07/10 11:02:39;;;;;;;1.70;1.60;;;25.30;78.70;;;;;;4977462;28;20489;-69
2022/07/10 11:05:41;;;;;;;3.27;1.73;;;25.30;76.90;;;;;;4977851;28;20454;-68
2022/07/10 11:08:08;;;;;;;1.80;1.50;;;25.20;76.60;;;;;;4976298;28;20458;-69
2022/07/10 11:10:36;;;;;;;1.63;1.53;;;25.40;77.10;;;;;;4977561;28;20475;-70
2022/07/10 11:13:05;;;;;;;1.63;1.30;;;25.80;76.70;;;;;;4978017;28;20465;-69
2022/07/10 11:15:33;;;;;;;4.10;1.67;;;25.50;73.80;;;;;;4977928;28;20450;-69
2022/07/10 11:18:04;;;;;;;1.90;1.50;;;25.60;76.00;;;;;;4977814;28;20462;-69
2022/07/10 11:20:33;;;;;;;2.03;1.73;;;25.90;73.00;;;;;;4977277;28;20470;-69
2022/07/10 11:23:48;;;;;;;1.97;1.77;;;25.90;72.90;;;;;;4978014;28;20470;-69
2022/07/10 11:26:22;;;;;;;3.00;1.60;;;25.60;74.50;;;;;;4958140;28;20486;-70
2022/07/10 11:28:51;;;;;;;1.23;1.20;;;25.20;72.90;;;;;;4981730;28;20985;-69
2022/07/10 11:31:19;;;;;;;3.53;1.50;;;24.60;75.10;;;;;;4996989;28;20470;-69
2022/07/10 11:33:48;;;;;;;2.57;1.60;;;24.50;79.10;;;;;;4981770;28;21023;-68
2022/07/10 11:36:17;;;;;;;3.53;1.33;;;24.70;79.10;;;;;;4977908;28;20462;-69
2022/07/10 11:38:45;;;;;;;1.83;1.40;;;25.10;77.70;;;;;;4977451;28;20455;-69
2022/07/10 11:41:17;;;;;;;3.37;1.60;;;25.50;76.20;;;;;;4977236;28;20478;-69
2022/07/10 11:43:48;;;;;;;2.40;1.20;;;25.70;74.00;;;;;;4977266;28;20541;-69
2022/07/10 11:46:14;;;;;;;3.07;1.60;;;25.70;71.50;;;;;;4976881;28;20972;-69
2022/07/10 11:48:42;;;;;;;2.87;1.50;;;25.20;71.50;;;;;;4977568;28;20455;-69
2022/07/10 11:51:18;;;;;;;1.57;1.47;;;24.90;74.40;;;;;;4977890;28;20884;-68
2022/07/10 11:53:57;;;;;;;3.30;1.70;;;24.80;73.00;;;;;;4977615;28;20466;-69
2022/07/10 11:56:24;;;;;;;2.00;1.37;;;24.50;74.70;;;;;;4977040;28;20513;-68
2022/07/10 11:58:58;;;;;;;1.47;1.30;;;24.30;75.00;;;;;;4977074;28;20803;-69
2022/07/10 12:01:25;;;;;;;2.10;1.33;;;23.80;75.10;;;;;;4976933;28;20515;-69
2022/07/10 12:03:59;;;;;;;5.60;1.20;;;23.50;75.30;;;;;;4976948;28;20451;-69
2022/07/10 12:06:28;;;;;;;2.17;1.43;;;23.50;74.90;;;;;;4977070;28;20446;-68
2022/07/10 12:08:55;;;;;;;1.57;0.93;;;23.60;74.20;;;;;;4976789;28;20458;-69
2022/07/10 12:11:22;;;;;;;1.60;1.10;;;24.10;76.70;;;;;;4976886;28;20471;-69
2022/07/10 12:13:51;;;;;;;2.10;1.00;;;24.10;72.20;;;;;;4976357;28;21056;-69
2022/07/10 12:16:18;;;;;;;1.33;1.20;;;24.30;74.00;;;;;;4976599;28;20454;-69
2022/07/10 12:18:46;;;;;;;1.13;1.03;;;24.40;74.10;;;;;;4976542;28;20450;-69
2022/07/10 12:21:14;;;;;;;2.10;1.20;;;24.40;74.80;;;;;;4976512;28;20482;-69
2022/07/10 12:23:46;;;;;;;2.07;1.53;;;24.50;74.60;;;;;;4976609;28;20455;-69
2022/07/10 12:26:14;;;;;;;2.40;1.40;;;24.50;73.90;;;;;;4976637;28;20478;-69
2022/07/10 12:28:55;;;;;;;2.00;1.60;;;24.70;72.00;;;;;;4976455;28;20450;-69
2022/07/10 12:31:27;;;;;;;3.00;1.37;;;25.00;74.30;;;;;;4976134;28;20471;-69
2022/07/10 12:33:57;;;;;;;1.23;1.20;;;25.10;72.70;;;;;;4975383;28;21031;-69
2022/07/10 12:36:25;;;;;;;2.80;1.30;;;25.40;72.50;;;;;;4976301;28;20454;-69
2022/07/10 12:38:59;;;;;;;2.80;1.27;;;25.50;69.50;;;;;;4976508;28;20513;-70
2022/07/10 12:41:26;;;;;;;1.20;0.87;;;25.40;72.40;;;;;;4975953;28;20471;-69
2022/07/10 12:43:54;;;;;;;3.50;0.90;;;25.10;69.40;;;;;;4976009;28;20458;-69
2022/07/10 12:46:22;;;;;;;1.03;0.93;;;25.20;69.00;;;;;;4976285;28;20455;-68
2022/07/10 12:49:06;;;;;;;1.33;1.13;;;25.20;68.10;;;;;;4975968;28;20465;-70
2022/07/10 12:51:34;;;;;;;2.10;1.07;;;24.90;69.30;;;;;;4975611;28;20986;-69
2022/07/10 12:54:02;;;;;;;2.77;1.47;;;25.10;69.10;;;;;;4975849;28;20529;-69
2022/07/10 12:56:31;;;;;;;4.57;1.50;;;25.00;71.40;;;;;;4975724;28;20454;-69
2022/07/10 12:58:59;;;;;;;0.97;0.93;;;25.20;69.90;;;;;;4976026;28;20458;-68
2022/07/10 13:01:28;;;;;;;1.53;1.43;;;25.30;67.10;;;;;;4975477;28;20498;-69
2022/07/10 13:03:59;;;;;;;2.70;0.83;;;25.20;68.90;;;;;;4975814;28;20509;-68
2022/07/10 13:06:27;;;;;;;1.53;1.00;;;25.30;69.80;;;;;;4975830;28;20482;-68
2022/07/10 13:08:54;;;;;;;1.20;1.10;;;25.50;67.80;;;;;;4975933;28;20549;-68
2022/07/10 13:11:22;;;;;;;1.10;1.00;;;25.60;67.20;;;;;;4975680;28;20502;-68
2022/07/10 13:13:49;;;;;;;1.20;1.10;;;25.50;65.40;;;;;;4975351;28;20490;-68
2022/07/10 13:16:16;;;;;;;5.03;1.47;;;25.30;65.70;;;;;;4975517;28;20461;-69
2022/07/10 13:18:43;;;;;;;2.27;1.20;;;25.00;66.40;;;;;;4975530;28;20949;-69
2022/07/10 13:21:11;;;;;;;1.67;1.03;;;24.60;69.60;;;;;;4975465;28;20895;-69
2022/07/10 13:23:39;;;;;;;3.00;1.30;;;24.50;69.50;;;;;;4975859;28;20454;-68
2022/07/10 13:26:07;;;;;;;2.60;0.80;;;24.60;70.00;;;;;;4975493;28;20459;-68
2022/07/10 13:28:35;;;;;;;1.43;1.33;;;24.90;70.70;;;;;;4975183;28;20455;-68
2022/07/10 13:31:03;;;;;;;1.27;0.90;;;25.20;69.70;;;;;;4975302;28;20510;-68
2022/07/10 13:33:29;;;;;;;0.90;0.90;;;25.40;65.70;;;;;;4975419;28;20486;-68
2022/07/10 13:35:56;;;;;;;2.73;1.03;;;25.40;64.70;;;;;;4975021;28;20849;-68
2022/07/10 13:38:25;;;;;;;2.13;1.80;;;25.30;65.00;;;;;;4974614;28;20953;-69
2022/07/10 13:40:51;;;;;;;1.40;1.17;;;25.40;63.40;;;;;;4975117;28;21041;-69
2022/07/10 13:43:20;;;;;;;4.03;1.03;;;25.40;66.30;;;;;;4975969;28;20973;-68
2022/07/10 13:45:49;;;;;;;2.97;0.90;;;25.30;67.00;;;;;;4979505;28;20450;-68
2022/07/10 13:48:16;;;;;;;2.10;1.03;;;25.00;66.60;;;;;;4979486;28;20454;-69
2022/07/10 13:50:46;;;;;;;1.60;0.90;;;24.80;68.20;;;;;;4980095;28;20865;-69
2022/07/10 13:53:13;;;;;;;3.37;1.07;;;24.70;65.00;;;;;;4979830;28;20851;-69
2022/07/10 13:55:40;;;;;;;1.20;1.10;;;24.60;67.70;;;;;;4979744;28;20474;-69
2022/07/10 13:58:08;;;;;;;1.23;0.90;;;24.60;68.40;;;;;;4980238;28;20462;-71
2022/07/10 14:00:36;;;;;;;1.20;1.10;;;24.80;69.30;;;;;;4979469;28;20488;-68
2022/07/10 14:03:04;;;;;;;0.90;0.67;;;24.90;67.40;;;;;;4979236;28;20454;-68
2022/07/10 14:05:32;;;;;;;1.93;1.10;;;25.40;66.00;;;;;;4978631;28;20450;-69
2022/07/10 14:07:59;;;;;;;2.97;1.10;;;25.40;65.80;;;;;;4978495;28;20965;-68
2022/07/10 14:10:26;;;;;;;1.53;0.97;;;25.40;66.60;;;;;;4978504;28;20455;-68
2022/07/10 14:12:54;;;;;;;1.00;0.90;;;25.00;65.40;;;;;;4978635;28;20532;-68
2022/07/10 14:15:21;;;;;;;0.70;0.70;;;24.70;66.30;;;;;;4978728;28;20485;-68
2022/07/10 14:17:48;;;;;;;1.23;1.07;;;24.70;68.90;;;;;;4978369;28;20973;-69
2022/07/10 14:20:16;;;;;;;2.53;1.60;;;24.70;65.80;;;;;;4978072;28;21025;-68
2022/07/10 14:22:45;;;;;;;3.10;2.80;;;24.70;65.30;;;;;;4978580;28;20465;-69
2022/07/10 14:25:13;;;;;;;1.87;1.60;;;24.70;65.80;;;;;;4978506;28;20545;-69
2022/07/10 14:27:40;;;;;;;1.43;1.13;;;24.80;65.80;;;;;;4978350;28;20481;-69
2022/07/10 14:30:08;;;;;;;1.10;1.00;;;24.90;65.80;;;;;;4977970;28;20823;-70
2022/07/10 14:32:35;;;;;;;2.60;0.90;;;24.80;66.20;;;;;;4978328;28;20475;-70
2022/07/10 14:35:01;;;;;;;1.83;0.90;;;25.00;65.00;;;;;;4978201;28;20481;-69
2022/07/10 14:37:29;;;;;;;1.13;0.80;;;24.90;65.30;;;;;;4988353;28;20461;-70
2022/07/10 14:39:56;;;;;;;4.40;1.33;;;25.00;65.60;;;;;;4996512;28;20474;-69
2022/07/10 14:42:23;;;;;;;1.63;1.10;;;25.00;65.80;;;;;;4979361;28;20554;-69
2022/07/10 14:44:50;;;;;;;1.93;1.10;;;25.10;64.20;;;;;;4977899;28;20957;-70
2022/07/10 14:47:16;;;;;;;1.87;0.90;;;25.00;64.30;;;;;;4977866;28;20458;-69
2022/07/10 14:49:43;;;;;;;1.50;1.10;;;25.20;64.10;;;;;;4977962;28;20458;-69
2022/07/10 14:52:10;;;;;;;2.83;1.60;;;25.30;63.60;;;;;;4977816;28;20474;-69
2022/07/10 14:54:38;;;;;;;1.03;0.90;;;25.20;63.30;;;;;;4977427;28;20486;-69
2022/07/10 14:57:05;;;;;;;3.53;0.93;;;25.20;64.00;;;;;;4977399;28;20459;-68
2022/07/10 14:59:32;;;;;;;2.10;0.97;;;25.10;64.60;;;;;;4977777;28;20458;-68
2022/07/10 15:01:59;;;;;;;2.33;1.00;;;24.80;64.60;;;;;;4977278;28;20549;-69
2022/07/10 15:04:25;;;;;;;2.30;1.00;;;24.70;63.90;;;;;;4977338;28;20489;-69
2022/07/10 15:06:52;;;;;;;3.33;0.90;;;24.60;64.70;;;;;;4977665;28;20459;-68
2022/07/10 15:09:19;;;;;;;1.23;0.83;;;24.60;63.80;;;;;;4977507;28;20477;-68
2022/07/10 15:11:47;;;;;;;1.50;0.60;;;24.60;64.80;;;;;;4977371;28;20521;-68
2022/07/10 15:14:13;;;;;;;1.00;0.73;;;24.50;63.80;;;;;;4977456;28;20450;-68
2022/07/10 15:16:40;;;;;;;3.27;1.30;;;24.50;66.90;;;;;;4977086;28;20478;-68
2022/07/10 15:19:09;;;;;;;1.40;1.30;;;24.30;70.90;;;;;;4977058;28;20451;-68
2022/07/10 15:21:36;;;;;;;2.10;0.90;;;24.30;64.80;;;;;;4977306;28;20529;-69
2022/07/10 15:24:03;;;;;;;1.50;1.00;;;24.20;70.90;;;;;;4977218;28;20455;-69
2022/07/10 15:26:30;;;;;;;1.07;0.90;;;24.40;66.60;;;;;;4976932;28;20880;-69
2022/07/10 15:28:59;;;;;;;2.13;1.10;;;24.50;73.80;;;;;;4976813;28;20546;-68
2022/07/10 15:31:26;;;;;;;1.40;0.80;;;24.50;65.60;;;;;;4976725;28;20891;-68
2022/07/10 15:33:53;;;;;;;1.30;1.20;;;24.50;68.80;;;;;;4976814;28;20934;-68
2022/07/10 15:36:21;;;;;;;1.13;0.77;;;24.60;64.60;;;;;;4976991;28;20482;-68
2022/07/10 15:38:48;;;;;;;2.77;0.70;;;24.30;64.50;;;;;;4976998;28;20854;-68
2022/07/10 15:41:14;;;;;;;1.37;1.10;;;24.20;65.70;;;;;;4976872;28;20478;-68
2022/07/10 15:43:42;;;;;;;3.37;0.97;;;24.10;65.30;;;;;;4976894;28;20462;-69
2022/07/10 15:46:12;;;;;;;3.00;1.10;;;24.20;66.10;;;;;;4976882;28;20862;-69
2022/07/10 15:48:39;;;;;;;1.90;0.90;;;24.20;68.10;;;;;;4976630;28;20942;-68
2022/07/10 15:51:06;;;;;;;1.57;1.00;;;24.20;66.90;;;;;;4976670;28;20479;-69
2022/07/10 15:53:32;;;;;;;1.00;0.80;;;24.20;66.00;;;;;;4976841;28;20459;-68
2022/07/10 15:55:59;;;;;;;1.20;0.90;;;24.10;66.20;;;;;;4976657;28;20474;-68
2022/07/10 15:58:26;;;;;;;2.33;1.00;;;24.10;66.30;;;;;;4976725;28;20482;-69
2022/07/10 16:00:52;;;;;;;2.20;1.53;;;24.00;65.80;;;;;;4976344;28;20494;-68
2022/07/10 16:03:20;;;;;;;1.90;1.50;;;24.00;67.40;;;;;;4976180;28;20973;-68
2022/07/10 16:05:47;;;;;;;1.43;1.30;;;24.10;70.60;;;;;;4976540;28;20458;-68
2022/07/10 16:08:14;;;;;;;2.00;1.90;;;24.20;65.50;;;;;;4977255;28;20458;-69
2022/07/10 16:10:41;;;;;;;3.10;1.40;;;24.40;63.90;;;;;;4976206;28;20533;-69
2022/07/10 16:13:07;;;;;;;2.20;2.10;;;24.30;63.70;;;;;;4976494;28;20506;-69
2022/07/10 16:15:34;;;;;;;12.87;11.50;;;24.30;66.90;;;;;;4975985;28;21048;-69
2022/07/10 16:18:01;;;;;;;6.23;4.90;;;24.30;62.70;;;;;;4976303;28;20459;-68
2022/07/10 16:20:29;;;;;;;2.40;2.20;;;24.20;63.20;;;;;;4976156;28;20462;-69
2022/07/10 16:22:56;;;;;;;1.57;1.47;;;24.10;64.40;;;;;;4976288;28;20550;-68
2022/07/10 16:28:07;;;;;;;5.40;1.53;;;23.90;63.90;;;;;;4976475;28;20486;-69
2022/07/10 16:30:34;;;;;;;0.97;0.97;;;23.70;65.40;;;;;;4976022;28;20798;-68
2022/07/10 16:33:00;;;;;;;2.70;1.40;;;23.70;64.70;;;;;;4976046;28;20458;-69
2022/07/10 16:35:29;;;;;;;5.40;3.03;;;23.70;65.60;;;;;;4975879;28;20479;-69
2022/07/10 16:37:56;;;;;;;3.10;2.57;;;23.70;66.30;;;;;;4975973;28;20455;-69
2022/07/10 16:40:23;;;;;;;2.00;1.63;;;23.60;64.90;;;;;;4975628;28;20454;-68
2022/07/10 16:42:49;;;;;;;1.33;1.00;;;23.60;64.70;;;;;;4975569;28;20957;-69
2022/07/10 16:45:16;;;;;;;1.63;1.50;;;23.60;64.60;;;;;;4975835;28;20458;-69
2022/07/10 16:47:43;;;;;;;3.83;2.17;;;23.50;64.70;;;;;;4975708;28;20459;-69
2022/07/10 16:50:10;;;;;;;2.60;1.30;;;23.50;65.30;;;;;;4975880;28;20454;-68
2022/07/10 16:52:40;;;;;;;1.40;1.20;;;23.60;73.50;;;;;;4975659;28;21018;-68
2022/07/10 16:55:08;;;;;;;1.47;1.00;;;23.70;74.00;;;;;;4975694;28;20902;-69
2022/07/10 16:57:35;;;;;;;2.33;1.70;;;23.80;69.70;;;;;;4976027;28;20509;-69
2022/07/10 17:00:01;;;;;;;5.60;5.00;;;23.80;70.00;;;;;;4975528;28;20472;-68
2022/07/10 17:02:28;;;;;;;2.93;2.63;;;23.70;69.40;;;;;;4975230;28;20491;-68